Time,TemperatureF,DewpointF,PressureIn,WindDirection,WindDirectionDegrees,WindSpeedMPH,WindSpeedGustMPH,Humidity,HourlyPrecipIn,Conditions,Clouds,dailyrainin,SoftwareType,DateUTC
2013-05-01 00:02:00,57.0,52.0,29.85,West,280,0.0,-999.0,82,-99.99,,,-99.99,,2013-05-01 05:02:00,
2013-05-01 00:11:00,57.0,52.0,29.85,West,280,0.0,-999.0,82,-99.99,,,-99.99,,2013-05-01 05:11:00,
2013-05-01 00:21:00,56.0,52.0,29.86,West,280,0.0,-999.0,86,-99.99,,,-99.99,,2013-05-01 05:21:00,
2013-05-01 00:32:00,56.0,52.0,29.86,West,280,0.0,-999.0,86,-99.99,,,-99.99,,2013-05-01 05:32:00,
2013-05-01 00:42:00,56.0,52.0,29.86,West,280,0.0,-999.0,86,-99.99,,,-99.99,,2013-05-01 05:42:00,
2013-05-01 00:52:00,55.0,51.0,29.86,West,280,0.0,-999.0,87,-99.99,,,-99.99,,2013-05-01 05:52:00,
2013-05-01 01:02:00,55.0,51.0,29.87,West,280,0.0,-999.0,87,-99.99,,,-99.99,,2013-05-01 06:02:00,
2013-05-01 01:11:00,55.0,51.0,29.87,West,280,0.0,-999.0,87,-99.99,,,-99.99,,2013-05-01 06:11:00,
2013-05-01 01:22:00,54.0,51.0,29.86,West,280,0.0,-999.0,88,-99.99,,,-99.99,,2013-05-01 06:22:00,
2013-05-01 01:32:00,54.0,51.0,29.87,West,280,0.0,-999.0,89,-99.99,,,-99.99,,2013-05-01 06:32:00,
2013-05-01 01:42:00,54.0,51.0,29.87,West,280,0.0,-999.0,89,-99.99,,,-99.99,,2013-05-01 06:42:00,
2013-05-01 01:52:00,54.0,51.0,29.88,West,280,0.0,-999.0,89,-99.99,,,-99.99,,2013-05-01 06:52:00,
2013-05-01 02:01:00,53.0,50.0,29.88,West,280,0.0,-999.0,90,-99.99,,,-99.99,,2013-05-01 07:01:00,
2013-05-01 02:11:00,53.0,50.0,29.88,West,280,0.0,-999.0,90,-99.99,,,-99.99,,2013-05-01 07:11:00,
2013-05-01 02:21:00,53.0,50.0,29.88,West,280,0.0,-999.0,90,-99.99,,,-99.99,,2013-05-01 07:21:00,
2013-05-01 02:32:00,53.0,50.0,29.88,West,280,0.0,-999.0,90,-99.99,,,-99.99,,2013-05-01 07:32:00,
2013-05-01 02:42:00,53.0,50.0,29.88,West,280,0.0,-999.0,90,-99.99,,,-99.99,,2013-05-01 07:42:00,
2013-05-01 02:52:00,52.0,49.0,29.88,West,280,0.0,-999.0,91,-99.99,,,-99.99,,2013-05-01 07:52:00,
2013-05-01 03:01:00,52.0,49.0,29.88,West,280,0.0,-999.0,91,-99.99,,,-99.99,,2013-05-01 08:01:00,
2013-05-01 03:11:00,52.0,49.0,29.88,West,280,0.0,-999.0,91,-99.99,,,-99.99,,2013-05-01 08:11:00,
2013-05-01 03:21:00,52.0,49.0,29.87,West,280,0.0,-999.0,91,-99.99,,,-99.99,,2013-05-01 08:21:00,
2013-05-01 03:31:00,52.0,50.0,29.88,West,280,0.0,-999.0,92,-99.99,,,-99.99,,2013-05-01 08:31:00,
2013-05-01 03:42:00,52.0,50.0,29.88,West,280,0.0,-999.0,92,-99.99,,,-99.99,,2013-05-01 08:42:00,
2013-05-01 03:53:00,51.0,49.0,29.88,West,280,0.0,-999.0,92,-99.99,,,-99.99,,2013-05-01 08:53:00,
2013-05-01 04:01:00,51.0,49.0,29.89,West,280,0.0,-999.0,92,-99.99,,,-99.99,,2013-05-01 09:01:00,
2013-05-01 04:11:00,51.0,49.0,29.89,West,280,0.0,-999.0,92,-99.99,,,-99.99,,2013-05-01 09:11:00,
2013-05-01 04:21:00,51.0,49.0,29.89,West,280,0.0,-999.0,92,-99.99,,,-99.99,,2013-05-01 09:21:00,
2013-05-01 04:33:00,51.0,49.0,29.89,West,280,0.0,-999.0,93,-99.99,,,-99.99,,2013-05-01 09:33:00,
2013-05-01 04:42:00,51.0,49.0,29.89,West,280,0.0,-999.0,93,-99.99,,,-99.99,,2013-05-01 09:42:00,
2013-05-01 04:53:00,51.0,49.0,29.90,West,280,0.0,-999.0,93,-99.99,,,-99.99,,2013-05-01 09:53:00,
2013-05-01 05:02:00,51.0,49.0,29.90,West,280,0.0,-999.0,93,-99.99,,,-99.99,,2013-05-01 10:02:00,
2013-05-01 05:12:00,51.0,49.0,29.90,West,280,0.0,-999.0,93,-99.99,,,-99.99,,2013-05-01 10:12:00,
2013-05-01 05:22:00,51.0,49.0,29.90,West,280,0.0,-999.0,93,-99.99,,,-99.99,,2013-05-01 10:22:00,
2013-05-01 05:33:00,51.0,49.0,29.91,West,280,0.0,-999.0,93,-99.99,,,-99.99,,2013-05-01 10:33:00,
2013-05-01 05:42:00,51.0,49.0,29.91,West,280,0.0,-999.0,93,-99.99,,,-99.99,,2013-05-01 10:42:00,
2013-05-01 05:53:00,51.0,49.0,29.91,West,280,0.0,-999.0,93,-99.99,,,-99.99,,2013-05-01 10:53:00,
2013-05-01 06:02:00,51.0,49.0,29.91,West,280,0.0,-999.0,93,-99.99,,,-99.99,,2013-05-01 11:02:00,
2013-05-01 06:11:00,51.0,49.0,29.91,West,280,0.0,-999.0,93,-99.99,,,-99.99,,2013-05-01 11:11:00,
2013-05-01 06:22:00,50.0,48.0,29.91,West,280,0.0,-999.0,93,-99.99,,,-99.99,,2013-05-01 11:22:00,
2013-05-01 06:32:00,50.0,48.0,29.92,West,280,0.0,-999.0,93,-99.99,,,-99.99,,2013-05-01 11:32:00,
2013-05-01 06:42:00,50.0,48.0,29.92,West,280,0.0,-999.0,93,-99.99,,,-99.99,,2013-05-01 11:42:00,
2013-05-01 06:52:00,50.0,48.0,29.93,West,280,0.0,-999.0,93,-99.99,,,-99.99,,2013-05-01 11:52:00,
2013-05-01 07:01:00,50.0,48.0,29.93,West,280,0.0,-999.0,93,-99.99,,,-99.99,,2013-05-01 12:01:00,
2013-05-01 07:11:00,50.0,48.0,29.93,WNW,296,0.0,-999.0,93,-99.99,,,-99.99,,2013-05-01 12:11:00,
2013-05-01 07:21:00,50.0,48.0,29.93,WNW,296,0.0,-999.0,93,-99.99,,,-99.99,,2013-05-01 12:21:00,
2013-05-01 07:31:00,50.0,48.0,29.94,WNW,296,0.0,-999.0,94,-99.99,,,-99.99,,2013-05-01 12:31:00,
2013-05-01 07:41:00,50.0,48.0,29.94,WNW,296,0.0,-999.0,94,-99.99,,,-99.99,,2013-05-01 12:41:00,
2013-05-01 07:52:00,51.0,49.0,29.94,WNW,297,0.0,-999.0,94,-99.99,,,-99.99,,2013-05-01 12:52:00,
2013-05-01 08:01:00,53.0,51.0,29.93,WNW,297,0.0,-999.0,94,-99.99,,,-99.99,,2013-05-01 13:01:00,
2013-05-01 08:11:00,53.0,51.0,29.93,WNW,297,0.0,-999.0,94,-99.99,,,-99.99,,2013-05-01 13:11:00,
2013-05-01 08:21:00,54.0,52.0,29.94,WNW,297,0.0,-999.0,93,-99.99,,,-99.99,,2013-05-01 13:21:00,
2013-05-01 08:31:00,55.0,52.0,29.94,WNW,295,0.0,-999.0,91,-99.99,,,-99.99,,2013-05-01 13:31:00,
2013-05-01 08:42:00,55.0,52.0,29.94,WNW,295,0.0,-999.0,91,-99.99,,,-99.99,,2013-05-01 13:42:00,
2013-05-01 08:52:00,56.0,53.0,29.95,WNW,295,0.0,-999.0,90,-99.99,,,-99.99,,2013-05-01 13:52:00,
2013-05-01 09:02:00,57.0,53.0,29.95,WNW,296,0.0,-999.0,87,-99.99,,,-99.99,,2013-05-01 14:02:00,
2013-05-01 09:11:00,57.0,53.0,29.95,WNW,296,0.0,-999.0,87,-99.99,,,-99.99,,2013-05-01 14:11:00,
2013-05-01 09:21:00,58.0,54.0,29.95,WNW,296,0.0,-999.0,88,-99.99,,,-99.99,,2013-05-01 14:21:00,
2013-05-01 09:32:00,60.0,56.0,29.95,WNW,300,0.0,-999.0,86,-99.99,,,-99.99,,2013-05-01 14:32:00,
2013-05-01 09:42:00,60.0,56.0,29.95,WNW,300,0.0,-999.0,86,-99.99,,,-99.99,,2013-05-01 14:42:00,
2013-05-01 09:52:00,62.0,57.0,29.95,WNW,300,0.0,-999.0,84,-99.99,,,-99.99,,2013-05-01 14:52:00,
2013-05-01 10:01:00,64.0,59.0,29.95,WNW,300,0.0,-999.0,84,-99.99,,,-99.99,,2013-05-01 15:01:00,
2013-05-01 10:11:00,64.0,59.0,29.95,WNW,300,0.0,-999.0,84,-99.99,,,-99.99,,2013-05-01 15:11:00,
2013-05-01 10:21:00,67.0,60.0,29.95,ENE,69,0.0,-999.0,78,-99.99,,,-99.99,,2013-05-01 15:21:00,
2013-05-01 10:33:00,69.0,61.0,29.96,East,90,0.0,-999.0,75,-99.99,,,-99.99,,2013-05-01 15:33:00,
2013-05-01 10:43:00,69.0,61.0,29.96,East,90,0.0,-999.0,75,-99.99,,,-99.99,,2013-05-01 15:43:00,
2013-05-01 10:53:00,69.0,61.0,29.96,ENE,70,1.0,-999.0,75,-99.99,,,-99.99,,2013-05-01 15:53:00,
2013-05-01 11:03:00,69.0,60.0,29.96,NE,36,1.0,-999.0,74,-99.99,,,-99.99,,2013-05-01 16:03:00,
2013-05-01 11:12:00,69.0,60.0,29.96,NE,36,1.0,-999.0,74,-99.99,,,-99.99,,2013-05-01 16:12:00,
2013-05-01 11:22:00,70.0,61.0,29.97,ENE,72,1.0,-999.0,73,-99.99,,,-99.99,,2013-05-01 16:22:00,
2013-05-01 11:31:00,72.0,63.0,29.97,ENE,74,0.0,-999.0,73,-99.99,,,-99.99,,2013-05-01 16:31:00,
2013-05-01 11:42:00,72.0,63.0,29.97,ENE,74,0.0,-999.0,73,-99.99,,,-99.99,,2013-05-01 16:42:00,
2013-05-01 11:53:00,73.0,63.0,29.97,East,89,0.0,-999.0,72,-99.99,,,-99.99,,2013-05-01 16:53:00,
2013-05-01 12:02:00,75.0,65.0,29.97,SE,138,0.0,-999.0,71,-99.99,,,-99.99,,2013-05-01 17:02:00,
2013-05-01 12:12:00,75.0,65.0,29.97,SE,138,0.0,-999.0,71,-99.99,,,-99.99,,2013-05-01 17:12:00,
2013-05-01 12:21:00,76.0,62.0,29.97,East,85,1.0,-999.0,63,-99.99,,,-99.99,,2013-05-01 17:21:00,
2013-05-01 12:31:00,77.0,63.0,29.96,NE,56,2.0,-999.0,61,-99.99,,,-99.99,,2013-05-01 17:31:00,
2013-05-01 12:42:00,77.0,63.0,29.96,NE,56,2.0,-999.0,61,-99.99,,,-99.99,,2013-05-01 17:42:00,
2013-05-01 12:52:00,78.0,62.0,29.96,NE,49,3.0,-999.0,58,-99.99,,,-99.99,,2013-05-01 17:52:00,
2013-05-01 13:01:00,78.0,62.0,29.96,ENE,61,3.0,-999.0,59,-99.99,,,-99.99,,2013-05-01 18:01:00,
2013-05-01 13:11:00,78.0,62.0,29.96,ENE,61,3.0,-999.0,59,-99.99,,,-99.99,,2013-05-01 18:11:00,
2013-05-01 13:22:00,78.0,63.0,29.96,ESE,117,3.0,-999.0,60,-99.99,,,-99.99,,2013-05-01 18:22:00,
2013-05-01 13:32:00,78.0,62.0,29.95,ENE,75,2.0,-999.0,58,-99.99,,,-99.99,,2013-05-01 18:32:00,
2013-05-01 13:41:00,78.0,62.0,29.95,ENE,75,2.0,-999.0,58,-99.99,,,-99.99,,2013-05-01 18:41:00,
2013-05-01 13:52:00,79.0,63.0,29.95,NE,50,5.0,-999.0,59,-99.99,,,-99.99,,2013-05-01 18:52:00,
2013-05-01 14:02:00,79.0,62.0,29.95,NE,43,5.0,-999.0,56,-99.99,,,-99.99,,2013-05-01 19:02:00,
2013-05-01 14:11:00,79.0,62.0,29.95,NE,43,5.0,-999.0,56,-99.99,,,-99.99,,2013-05-01 19:11:00,
2013-05-01 14:22:00,79.0,63.0,29.95,ENE,59,4.0,-999.0,59,-99.99,,,-99.99,,2013-05-01 19:22:00,
2013-05-01 14:32:00,80.0,63.0,29.95,NE,52,4.0,-999.0,56,-99.99,,,-99.99,,2013-05-01 19:32:00,
2013-05-01 14:42:00,80.0,63.0,29.95,NE,52,4.0,-999.0,56,-99.99,,,-99.99,,2013-05-01 19:42:00,
2013-05-01 14:52:00,80.0,63.0,29.95,NE,49,7.0,-999.0,56,-99.99,,,-99.99,,2013-05-01 19:52:00,
2013-05-01 15:01:00,79.0,63.0,29.95,NE,55,4.0,-999.0,59,-99.99,,,-99.99,,2013-05-01 20:01:00,
2013-05-01 15:11:00,79.0,63.0,29.95,NE,55,4.0,-999.0,59,-99.99,,,-99.99,,2013-05-01 20:11:00,
2013-05-01 15:21:00,78.0,62.0,29.96,ENE,66,2.0,-999.0,59,-99.99,,,-99.99,,2013-05-01 20:21:00,
2013-05-01 15:32:00,78.0,64.0,29.96,ESE,120,1.0,-999.0,62,-99.99,,,-99.99,,2013-05-01 20:32:00,
2013-05-01 15:42:00,78.0,64.0,29.96,ESE,120,1.0,-999.0,62,-99.99,,,-99.99,,2013-05-01 20:42:00,
2013-05-01 15:52:00,76.0,64.0,29.96,WNW,292,2.0,-999.0,66,-99.99,,,-99.99,,2013-05-01 20:52:00,
2013-05-01 16:01:00,77.0,63.0,29.96,NE,40,1.0,-999.0,63,-99.99,,,-99.99,,2013-05-01 21:01:00,
2013-05-01 16:11:00,77.0,63.0,29.96,NE,40,1.0,-999.0,63,-99.99,,,-99.99,,2013-05-01 21:11:00,
2013-05-01 16:22:00,78.0,64.0,29.96,ENE,66,1.0,-999.0,62,-99.99,,,-99.99,,2013-05-01 21:22:00,
2013-05-01 16:32:00,78.0,64.0,29.96,NW,325,2.0,-999.0,62,-99.99,,,-99.99,,2013-05-01 21:32:00,
2013-05-01 16:43:00,78.0,64.0,29.96,NW,325,2.0,-999.0,62,-99.99,,,-99.99,,2013-05-01 21:43:00,
2013-05-01 16:53:00,78.0,64.0,29.96,NE,42,2.0,-999.0,62,-99.99,,,-99.99,,2013-05-01 21:53:00,
2013-05-01 17:03:00,77.0,64.0,29.96,ENE,78,1.0,-999.0,64,-99.99,,,-99.99,,2013-05-01 22:03:00,
2013-05-01 17:12:00,77.0,64.0,29.96,ENE,78,1.0,-999.0,64,-99.99,,,-99.99,,2013-05-01 22:12:00,
2013-05-01 17:23:00,75.0,67.0,29.96,ENE,67,0.0,-999.0,75,-99.99,,,-99.99,,2013-05-01 22:23:00,
2013-05-01 17:33:00,73.0,67.0,29.95,ENE,67,0.0,-999.0,81,-99.99,,,-99.99,,2013-05-01 22:33:00,
2013-05-01 17:42:00,73.0,67.0,29.95,ENE,67,0.0,-999.0,81,-99.99,,,-99.99,,2013-05-01 22:42:00,
2013-05-01 17:53:00,72.0,67.0,29.96,ESE,107,0.0,-999.0,85,-99.99,,,-99.99,,2013-05-01 22:53:00,
2013-05-01 18:02:00,72.0,67.0,29.96,ESE,107,0.0,-999.0,85,-99.99,,,-99.99,,2013-05-01 23:02:00,
2013-05-01 18:12:00,72.0,67.0,29.96,ESE,107,0.0,-999.0,85,-99.99,,,-99.99,,2013-05-01 23:12:00,
2013-05-01 18:21:00,72.0,68.0,29.96,ESE,107,0.0,-999.0,86,-99.99,,,-99.99,,2013-05-01 23:21:00,
2013-05-01 18:32:00,72.0,68.0,29.96,ESE,107,0.0,-999.0,87,-99.99,,,-99.99,,2013-05-01 23:32:00,
2013-05-01 18:42:00,72.0,68.0,29.96,ESE,107,0.0,-999.0,87,-99.99,,,-99.99,,2013-05-01 23:42:00,
2013-05-01 18:52:00,72.0,68.0,29.96,ESE,107,0.0,-999.0,88,-99.99,,,-99.99,,2013-05-01 23:52:00,
2013-05-01 19:01:00,73.0,69.0,29.96,ESE,107,0.0,-999.0,88,-99.99,,,-99.99,,2013-05-02 00:01:00,
2013-05-01 19:11:00,73.0,69.0,29.96,ESE,107,0.0,-999.0,88,-99.99,,,-99.99,,2013-05-02 00:11:00,
2013-05-01 19:21:00,73.0,69.0,29.96,ESE,107,0.0,-999.0,88,-99.99,,,-99.99,,2013-05-02 00:21:00,
2013-05-01 19:32:00,72.0,69.0,29.96,ESE,107,0.0,-999.0,89,-99.99,,,-99.99,,2013-05-02 00:32:00,
2013-05-01 19:41:00,72.0,69.0,29.96,ESE,107,0.0,-999.0,89,-99.99,,,-99.99,,2013-05-02 00:41:00,
2013-05-01 19:52:00,72.0,69.0,29.96,ESE,107,0.0,-999.0,89,-99.99,,,-99.99,,2013-05-02 00:52:00,
2013-05-01 20:01:00,71.0,68.0,29.96,ESE,113,0.0,-999.0,89,-99.99,,,-99.99,,2013-05-02 01:01:00,
2013-05-01 20:11:00,71.0,68.0,29.96,ESE,113,0.0,-999.0,89,-99.99,,,-99.99,,2013-05-02 01:11:00,
2013-05-01 20:21:00,70.0,67.0,29.96,ESE,113,0.0,-999.0,90,-99.99,,,-99.99,,2013-05-02 01:21:00,
2013-05-01 20:32:00,69.0,66.0,29.96,ESE,113,0.0,-999.0,90,-99.99,,,-99.99,,2013-05-02 01:32:00,
2013-05-01 20:42:00,69.0,66.0,29.96,ESE,113,0.0,-999.0,90,-99.99,,,-99.99,,2013-05-02 01:42:00,
2013-05-01 20:52:00,68.0,65.0,29.97,ESE,113,0.0,-999.0,91,-99.99,,,-99.99,,2013-05-02 01:52:00,
2013-05-01 21:01:00,66.0,63.0,29.97,ESE,113,0.0,-999.0,91,-99.99,,,-99.99,,2013-05-02 02:01:00,
2013-05-01 21:11:00,66.0,63.0,29.97,ESE,113,0.0,-999.0,91,-99.99,,,-99.99,,2013-05-02 02:11:00,
2013-05-01 21:21:00,66.0,63.0,29.98,ESE,113,0.0,-999.0,91,-99.99,,,-99.99,,2013-05-02 02:21:00,
2013-05-01 21:32:00,65.0,63.0,29.98,ESE,113,0.0,-999.0,92,-99.99,,,-99.99,,2013-05-02 02:32:00,
2013-05-01 21:42:00,65.0,63.0,29.98,ESE,113,0.0,-999.0,92,-99.99,,,-99.99,,2013-05-02 02:42:00,
2013-05-01 21:51:00,65.0,63.0,29.98,ESE,113,0.0,-999.0,92,-99.99,,,-99.99,,2013-05-02 02:51:00,
2013-05-01 22:01:00,64.0,62.0,29.99,ESE,113,0.0,-999.0,92,-99.99,,,-99.99,,2013-05-02 03:01:00,
2013-05-01 22:11:00,64.0,62.0,29.99,ESE,113,0.0,-999.0,92,-99.99,,,-99.99,,2013-05-02 03:11:00,
2013-05-01 22:22:00,63.0,61.0,30.00,ESE,113,0.0,-999.0,92,-99.99,,,-99.99,,2013-05-02 03:22:00,
2013-05-01 22:32:00,62.0,60.0,30.00,ESE,113,0.0,-999.0,92,-99.99,,,-99.99,,2013-05-02 03:32:00,
2013-05-01 22:42:00,62.0,60.0,30.00,ESE,113,0.0,-999.0,92,-99.99,,,-99.99,,2013-05-02 03:42:00,
2013-05-01 22:53:00,62.0,60.0,30.01,ESE,113,0.0,-999.0,92,-99.99,,,-99.99,,2013-05-02 03:53:00,
2013-05-01 23:03:00,61.0,59.0,30.02,ESE,113,0.0,-999.0,92,-99.99,,,-99.99,,2013-05-02 04:03:00,
2013-05-01 23:12:00,61.0,59.0,30.02,ESE,113,0.0,-999.0,92,-99.99,,,-99.99,,2013-05-02 04:12:00,
2013-05-01 23:23:00,60.0,58.0,30.02,ESE,113,0.0,-999.0,93,-99.99,,,-99.99,,2013-05-02 04:23:00,
2013-05-01 23:33:00,60.0,58.0,30.02,ESE,113,0.0,-999.0,94,-99.99,,,-99.99,,2013-05-02 04:33:00,
2013-05-01 23:42:00,60.0,58.0,30.02,ESE,113,0.0,-999.0,94,-99.99,,,-99.99,,2013-05-02 04:42:00,
2013-05-01 23:52:00,60.0,58.0,30.03,ESE,113,0.0,-999.0,94,-99.99,,,-99.99,,2013-05-02 04:52:00,